createdAt,value
2019-05-23T00:00:36.108Z,10.10
2019-05-23T00:03:36.134Z,12.37
2019-05-23T00:06:26.927Z,11.03
2019-05-23T00:09:16.017Z,10.88
2019-05-23T00:11:57.515Z,12.35
2019-05-23T00:14:39.621Z,7.97
2019-05-23T00:17:13.229Z,11.08
2019-05-23T00:19:44.767Z,12.60
2019-05-23T00:22:17.143Z,12.55
2019-05-23T00:24:50.585Z,13.00
2019-05-23T00:27:22.006Z,14.55
2019-05-23T00:29:53.347Z,11.68
2019-05-23T00:32:26.138Z,12.13
2019-05-23T00:34:59.537Z,12.88
2019-05-23T00:37:31.913Z,9.75
2019-05-23T00:40:04.090Z,10.60
2019-05-23T00:42:35.281Z,12.78
2019-05-23T00:45:07.955Z,12.47
2019-05-23T00:47:39.954Z,11.18
2019-05-23T00:50:12.770Z,10.38
2019-05-23T00:52:43.918Z,8.20
2019-05-23T00:55:15.618Z,11.25
2019-05-23T00:57:46.829Z,9.20
2019-05-23T01:00:20.838Z,9.30
2019-05-23T01:02:54.082Z,16.70
2019-05-23T01:05:26.024Z,12.85
2019-05-23T01:07:57.926Z,10.10
2019-05-23T01:10:29.315Z,10.78
2019-05-23T01:13:00.463Z,11.30
2019-05-23T01:15:33.045Z,11.15
2019-05-23T01:18:04.497Z,11.50
2019-05-23T01:20:53.254Z,12.00
2019-05-23T01:23:26.552Z,17.12
2019-05-23T01:25:58.736Z,15.28
2019-05-23T01:28:30.084Z,12.37
2019-05-23T01:31:02.757Z,11.35
2019-05-23T01:33:34.211Z,15.60
2019-05-23T01:36:05.461Z,12.73
2019-05-23T01:38:38.044Z,12.43
2019-05-23T01:41:10.315Z,12.10
2019-05-23T01:43:42.499Z,12.88
2019-05-23T01:46:13.631Z,13.43
2019-05-23T01:48:45.102Z,13.15
2019-05-23T01:51:16.854Z,15.10
2019-05-23T01:53:48.204Z,13.48
2019-05-23T01:56:19.566Z,13.70
2019-05-23T01:58:50.913Z,17.65
2019-05-23T02:01:23.901Z,14.80
2019-05-23T02:03:56.176Z,18.40
2019-05-23T02:06:27.325Z,18.75
2019-05-23T02:08:58.881Z,22.70
2019-05-23T02:11:30.247Z,15.55
2019-05-23T02:14:01.888Z,21.62
2019-05-23T02:16:33.653Z,20.62
2019-05-23T02:19:06.128Z,19.55
2019-05-23T02:21:37.276Z,21.70
2019-05-23T02:24:09.385Z,27.27
2019-05-23T02:26:41.104Z,22.10
2019-05-23T02:29:12.656Z,25.37
2019-05-23T02:31:45.548Z,21.97
2019-05-23T02:34:17.314Z,15.30
2019-05-23T02:36:48.662Z,17.92
2019-05-23T02:39:37.734Z,17.70
2019-05-23T02:42:17.272Z,17.20
2019-05-23T02:44:50.693Z,20.68
2019-05-23T02:47:30.323Z,15.72
2019-05-23T02:50:02.492Z,22.65
2019-05-23T02:52:40.399Z,20.15
2019-05-23T02:55:15.358Z,18.50
2019-05-23T02:57:47.402Z,26.33
2019-05-23T03:00:52.500Z,19.48
2019-05-23T03:03:09.477Z,18.52
2019-05-23T03:05:41.339Z,17.75
2019-05-23T03:08:13.816Z,19.40
2019-05-23T03:10:50.282Z,19.92
2019-05-23T03:13:22.061Z,22.62
2019-05-23T03:15:53.802Z,19.32
2019-05-23T03:18:25.480Z,16.75
2019-05-23T03:20:57.300Z,19.52
2019-05-23T03:23:28.783Z,16.30
2019-05-23T03:26:04.027Z,16.90
2019-05-23T03:28:40.598Z,14.90
2019-05-23T03:31:28.644Z,14.85
2019-05-23T03:33:46.204Z,14.85
2019-05-23T03:36:17.626Z,14.30
2019-05-23T03:38:48.979Z,15.20
2019-05-23T03:41:20.331Z,15.88
2019-05-23T03:43:53.528Z,19.70
2019-05-23T03:46:26.934Z,14.03
2019-05-23T03:48:58.588Z,14.85
2019-05-23T03:51:30.976Z,18.05
2019-05-23T03:54:02.826Z,15.45
2019-05-23T03:56:35.521Z,16.55
2019-05-23T03:59:07.974Z,16.50
2019-05-23T04:01:47.704Z,12.85
2019-05-23T04:04:13.865Z,17.75
2019-05-23T04:06:45.934Z,18.07
2019-05-23T04:09:17.395Z,15.63
2019-05-23T04:11:49.170Z,17.25
2019-05-23T04:14:21.005Z,17.37
2019-05-23T04:16:52.884Z,17.92
2019-05-23T04:19:24.238Z,15.35
2019-05-23T04:21:56.040Z,11.50
2019-05-23T04:24:27.250Z,11.10
2019-05-23T04:26:58.500Z,13.05
2019-05-23T04:29:29.860Z,15.18
2019-05-23T04:32:07.617Z,12.60
2019-05-23T04:34:34.101Z,11.95
2019-05-23T04:37:05.249Z,12.63
2019-05-23T04:39:36.392Z,13.62
2019-05-23T04:42:07.951Z,14.50
2019-05-23T04:44:43.695Z,11.95
2019-05-23T04:47:12.841Z,14.75
2019-05-23T04:49:44.143Z,16.67
2019-05-23T04:52:15.401Z,16.82
2019-05-23T04:54:47.259Z,15.20
2019-05-23T04:57:21.176Z,14.78
2019-05-23T04:59:53.238Z,16.75
2019-05-23T05:02:26.931Z,19.23
2019-05-23T05:04:57.985Z,14.13
2019-05-23T05:07:29.244Z,14.83
2019-05-23T05:10:01.250Z,12.25
2019-05-23T05:12:33.390Z,17.17
2019-05-23T05:15:05.346Z,12.15
2019-05-23T05:17:36.494Z,13.03
2019-05-23T05:20:09.455Z,12.88
2019-05-23T05:22:41.037Z,11.25
2019-05-23T05:25:12.087Z,11.57
2019-05-23T05:27:43.642Z,11.33
2019-05-23T05:30:16.014Z,11.68
2019-05-23T05:32:48.191Z,8.83
2019-05-23T05:35:19.226Z,9.18
2019-05-23T05:37:50.683Z,12.15
2019-05-23T05:40:22.466Z,9.20
2019-05-23T05:42:53.668Z,9.68
2019-05-23T05:45:24.946Z,9.53
2019-05-23T05:47:56.194Z,9.43
2019-05-23T05:50:27.136Z,6.83
2019-05-23T05:52:58.492Z,8.28
2019-05-23T05:55:30.352Z,9.65
2019-05-23T05:58:01.812Z,7.72
2019-05-23T06:00:40.838Z,8.58
2019-05-23T06:03:12.803Z,10.98
2019-05-23T06:05:58.797Z,8.78
2019-05-23T06:08:31.906Z,10.38
2019-05-23T06:11:04.026Z,10.78
2019-05-23T06:13:35.117Z,5.33
2019-05-23T06:16:06.230Z,5.72
2019-05-23T06:18:37.507Z,6.75
2019-05-23T06:21:10.908Z,8.18
2019-05-23T06:23:42.261Z,7.50
2019-05-23T06:26:13.399Z,6.05
2019-05-23T06:28:44.853Z,7.35
2019-05-23T06:31:17.457Z,6.17
2019-05-23T06:33:48.785Z,8.55
2019-05-23T06:36:19.738Z,6.97
2019-05-23T06:38:51.191Z,7.87
2019-05-23T06:41:23.457Z,11.80
2019-05-23T06:43:54.603Z,6.90
2019-05-23T06:46:26.164Z,5.67
2019-05-23T06:48:58.046Z,5.08
2019-05-23T06:51:29.375Z,8.13
2019-05-23T06:54:00.517Z,6.60
2019-05-23T06:56:31.768Z,5.53
2019-05-23T06:59:02.927Z,7.53
2019-05-23T07:01:34.365Z,13.90
2019-05-23T07:04:05.932Z,7.33
2019-05-23T07:06:37.072Z,8.18
2019-05-23T07:09:11.231Z,8.68
2019-05-23T07:11:43.317Z,5.35
2019-05-23T07:14:14.503Z,6.90
2019-05-23T07:16:50.066Z,8.48
2019-05-23T07:19:19.394Z,6.22
2019-05-23T07:21:50.807Z,6.03
2019-05-23T07:24:22.468Z,6.25
2019-05-23T07:26:53.464Z,4.12
2019-05-23T07:29:25.067Z,8.08
2019-05-23T07:31:56.212Z,5.50
2019-05-23T07:34:27.354Z,5.20
2019-05-23T07:36:59.833Z,6.60
2019-05-23T07:39:31.117Z,6.92
2019-05-23T07:42:02.556Z,5.62
2019-05-23T07:44:47.344Z,5.37
2019-05-23T07:47:08.600Z,9.15
2019-05-23T07:49:40.367Z,3.12
2019-05-23T07:52:11.611Z,4.97
2019-05-23T07:55:02.831Z,4.10
2019-05-23T07:57:34.695Z,3.92
2019-05-23T08:00:07.683Z,5.30
2019-05-23T08:02:39.646Z,7.35
2019-05-23T08:05:12.423Z,5.08
2019-05-23T08:07:44.101Z,5.75
2019-05-23T08:10:30.879Z,3.50
2019-05-23T08:12:47.910Z,3.00
2019-05-23T08:15:19.980Z,4.20
2019-05-23T08:17:51.330Z,4.92
2019-05-23T08:20:22.783Z,2.40
2019-05-23T08:22:54.868Z,3.35
2019-05-23T08:25:25.904Z,4.25
2019-05-23T08:27:57.358Z,3.47
2019-05-23T08:30:28.603Z,4.75
2019-05-23T08:33:00.054Z,4.12
2019-05-23T08:35:32.228Z,6.42
2019-05-23T08:38:03.793Z,6.17
2019-05-23T08:40:35.341Z,4.80
2019-05-23T08:43:06.801Z,6.25
2019-05-23T08:45:38.157Z,4.00
2019-05-23T08:48:10.161Z,5.92
2019-05-23T08:50:41.874Z,7.87
2019-05-23T08:53:12.923Z,6.92
2019-05-23T08:55:44.784Z,6.97
2019-05-23T08:58:16.515Z,5.97
2019-05-23T09:00:47.901Z,6.65
2019-05-23T09:03:19.137Z,5.62
2019-05-23T09:05:50.507Z,5.03
2019-05-23T09:08:22.197Z,4.10
2019-05-23T09:10:53.616Z,6.03
2019-05-23T09:13:25.063Z,4.55
2019-05-23T09:15:56.011Z,3.55
2019-05-23T09:18:27.260Z,6.10
2019-05-23T09:20:58.610Z,4.95
2019-05-23T09:23:29.560Z,4.62
2019-05-23T09:26:00.810Z,7.78
2019-05-23T09:28:32.690Z,5.53
2019-05-23T09:31:04.139Z,3.30
2019-05-23T09:33:35.274Z,3.40
2019-05-23T09:36:06.739Z,26.30
2019-05-23T09:38:37.774Z,6.08
2019-05-23T09:41:09.225Z,2.60
2019-05-23T09:43:40.576Z,2.58
2019-05-23T09:46:12.128Z,4.47
2019-05-23T09:48:43.380Z,3.87
2019-05-23T09:51:15.753Z,4.70
2019-05-23T09:53:47.760Z,5.90
2019-05-23T09:56:20.012Z,7.30
2019-05-23T09:58:51.041Z,6.03
2019-05-23T10:01:22.792Z,2.90
2019-05-23T10:03:54.448Z,4.97
2019-05-23T10:06:25.803Z,5.00
2019-05-23T10:08:57.045Z,6.08
2019-05-23T10:11:27.982Z,5.35
2019-05-23T10:13:59.538Z,3.87
2019-05-23T10:16:31.090Z,5.40
2019-05-23T10:19:02.244Z,5.15
2019-05-23T10:21:33.483Z,4.53
2019-05-23T10:24:05.142Z,10.95
2019-05-23T10:26:37.621Z,7.65
2019-05-23T10:29:09.066Z,4.62
2019-05-23T10:31:40.309Z,3.25
2019-05-23T10:34:11.474Z,5.40
2019-05-23T10:36:42.912Z,5.85
2019-05-23T10:39:14.165Z,3.83
2019-05-23T10:41:45.409Z,5.62
2019-05-23T10:44:17.272Z,5.92
2019-05-23T10:46:48.316Z,5.15
2019-05-23T10:49:21.719Z,6.45
2019-05-23T10:51:52.935Z,6.55
2019-05-23T10:54:24.619Z,5.53
2019-05-23T10:56:55.878Z,4.92
2019-05-23T10:59:27.393Z,5.35
2019-05-23T11:01:58.596Z,9.78
2019-05-23T11:04:31.402Z,8.00
2019-05-23T11:07:02.898Z,5.67
2019-05-23T11:09:37.664Z,8.25
2019-05-23T11:12:08.841Z,6.78
2019-05-23T11:14:40.159Z,7.20
2019-05-23T11:17:11.483Z,8.93
2019-05-23T11:19:44.011Z,14.73
2019-05-23T11:22:15.152Z,9.30
2019-05-23T11:24:46.719Z,9.10
2019-05-23T11:27:18.211Z,11.00
2019-05-23T11:29:49.348Z,9.65
2019-05-23T11:32:20.971Z,9.80
2019-05-23T11:34:52.046Z,10.40
2019-05-23T11:37:23.726Z,10.68
2019-05-23T11:39:55.303Z,7.60
2019-05-23T11:42:26.368Z,9.05
2019-05-23T11:44:57.641Z,10.98
2019-05-23T11:47:32.098Z,9.38
2019-05-23T11:50:05.719Z,15.32
2019-05-23T11:52:36.778Z,9.43
2019-05-23T11:55:08.988Z,7.97
2019-05-23T11:57:40.146Z,15.50
2019-05-23T12:00:12.894Z,14.53
2019-05-23T12:02:45.702Z,8.70
2019-05-23T12:05:27.801Z,14.40
2019-05-23T12:07:58.915Z,10.98
2019-05-23T12:10:30.605Z,8.95
2019-05-23T12:13:01.960Z,7.30
2019-05-23T12:15:35.006Z,7.60
2019-05-23T12:18:07.282Z,8.33
2019-05-23T12:20:38.534Z,7.45
2019-05-23T12:23:11.243Z,8.53
2019-05-23T12:25:42.686Z,7.70
2019-05-23T12:28:15.929Z,6.90
2019-05-23T12:30:47.439Z,7.92
2019-05-23T12:33:18.405Z,10.23
2019-05-23T12:35:49.802Z,7.10
2019-05-23T12:38:21.214Z,5.90
2019-05-23T12:40:52.614Z,11.57
2019-05-23T12:43:23.959Z,7.97
2019-05-23T12:45:55.337Z,9.13
2019-05-23T12:48:28.419Z,13.55
2019-05-23T12:51:10.216Z,8.73
2019-05-23T12:53:41.768Z,6.35
2019-05-23T12:56:13.391Z,8.93
2019-05-23T12:58:46.423Z,11.38
2019-05-23T13:01:18.795Z,8.73
2019-05-23T13:03:50.043Z,6.92
2019-05-23T13:06:21.085Z,7.03
2019-05-23T13:08:54.120Z,8.73
2019-05-23T13:11:25.731Z,9.08
2019-05-23T13:13:57.072Z,9.73
2019-05-23T13:16:29.305Z,10.18
2019-05-23T13:19:00.640Z,8.33
2019-05-23T13:21:31.644Z,7.12
2019-05-23T13:24:03.572Z,5.70
2019-05-23T13:26:35.147Z,9.65
2019-05-23T13:29:06.292Z,11.53
2019-05-23T13:31:37.538Z,11.40
2019-05-23T13:34:08.883Z,6.58
2019-05-23T13:36:40.445Z,9.23
2019-05-23T13:39:12.715Z,12.00
2019-05-23T13:41:43.794Z,9.00
2019-05-23T13:44:32.171Z,9.88
2019-05-23T13:46:50.231Z,11.08
2019-05-23T13:49:21.584Z,9.93
2019-05-23T13:51:53.149Z,16.45
2019-05-23T13:54:24.703Z,10.53
2019-05-23T13:56:56.903Z,11.78
2019-05-23T13:59:29.832Z,9.38
2019-05-23T14:02:02.835Z,9.48
2019-05-23T14:04:37.758Z,8.83
2019-05-23T14:07:10.539Z,15.55
2019-05-23T14:09:41.794Z,14.25
2019-05-23T14:12:21.791Z,15.78
2019-05-23T14:14:46.319Z,14.25
2019-05-23T14:17:28.240Z,13.28
2019-05-23T14:19:59.683Z,10.53
2019-05-23T14:22:32.327Z,14.70
2019-05-23T14:25:06.130Z,12.45
2019-05-23T14:27:45.906Z,11.53
2019-05-23T14:30:19.818Z,20.15
2019-05-23T14:32:53.824Z,16.52
2019-05-23T14:35:30.706Z,13.70
2019-05-23T14:38:04.105Z,19.95
2019-05-23T14:40:36.162Z,29.07
2019-05-23T14:43:09.866Z,19.00
2019-05-23T14:45:59.033Z,17.90
2019-05-23T14:48:32.945Z,15.80
2019-05-23T14:51:06.764Z,11.80
2019-05-23T14:53:40.391Z,19.10
2019-05-23T14:56:13.035Z,22.40
2019-05-23T14:58:44.794Z,29.07
2019-05-23T15:01:17.069Z,26.87
2019-05-23T15:03:48.935Z,21.10
2019-05-23T15:06:21.106Z,19.77
2019-05-23T15:08:53.528Z,23.25
2019-05-23T15:11:25.643Z,20.68
2019-05-23T15:13:57.508Z,28.05
2019-05-23T15:16:30.178Z,20.80
2019-05-23T15:19:02.142Z,17.57
2019-05-23T15:21:34.125Z,18.67
2019-05-23T15:24:05.979Z,22.77
2019-05-23T15:26:38.542Z,18.40
2019-05-23T15:29:10.582Z,20.00
2019-05-23T15:31:42.880Z,23.62
2019-05-23T15:34:15.267Z,28.05
2019-05-23T15:36:47.417Z,24.05
2019-05-23T15:39:20.442Z,26.33
2019-05-23T15:41:52.483Z,24.35
2019-05-23T15:44:29.326Z,28.47
2019-05-23T15:46:59.287Z,24.25
2019-05-23T15:49:33.062Z,21.35
2019-05-23T15:52:23.982Z,18.10
2019-05-23T15:55:03.844Z,24.55
2019-05-23T15:57:43.157Z,21.90
2019-05-23T16:00:33.447Z,19.70
2019-05-23T16:03:09.816Z,17.60
2019-05-23T16:05:42.804Z,10.45
2019-05-23T16:08:15.595Z,11.75
2019-05-23T16:10:48.265Z,19.30
2019-05-23T16:13:20.031Z,11.55
2019-05-23T16:15:52.195Z,17.60
2019-05-23T16:18:25.223Z,11.50
2019-05-23T16:20:57.157Z,15.83
2019-05-23T16:23:29.279Z,13.35
2019-05-23T16:26:01.587Z,14.05
2019-05-23T16:28:33.648Z,12.35
2019-05-23T16:31:05.712Z,13.78
2019-05-23T16:33:37.780Z,17.30
2019-05-23T16:36:14.857Z,16.42
2019-05-23T16:41:20.121Z,20.20
2019-05-23T16:43:52.400Z,18.75
2019-05-23T16:46:24.682Z,20.77
2019-05-23T16:48:56.831Z,16.25
2019-05-23T16:51:29.100Z,20.23
2019-05-23T16:54:03.029Z,15.25
2019-05-23T16:56:45.857Z,23.57
2019-05-23T16:59:19.740Z,23.25
2019-05-23T17:02:08.779Z,22.17
2019-05-23T17:04:43.125Z,18.75
2019-05-23T17:07:33.619Z,27.40
2019-05-23T17:10:09.744Z,20.40
2019-05-23T17:12:44.059Z,21.57
2019-05-23T17:15:24.373Z,19.95
2019-05-23T17:18:02.782Z,13.25
2019-05-23T17:20:33.919Z,15.90
2019-05-23T17:23:15.195Z,19.35
2019-05-23T17:26:04.262Z,18.17
2019-05-23T17:28:39.403Z,16.17
2019-05-23T17:31:13.317Z,20.33
2019-05-23T17:33:46.706Z,18.42
2019-05-23T17:36:19.287Z,12.75
2019-05-23T17:38:52.368Z,12.45
2019-05-23T17:41:25.512Z,13.40
2019-05-23T17:43:57.980Z,17.12
2019-05-23T17:46:30.517Z,16.62
2019-05-23T17:49:02.967Z,18.25
2019-05-23T17:51:35.113Z,16.07
2019-05-23T17:54:08.573Z,21.27
2019-05-23T17:56:40.846Z,16.57
2019-05-23T17:59:13.403Z,18.10
2019-05-23T18:01:47.218Z,15.35
2019-05-23T18:04:19.374Z,22.02
2019-05-23T18:06:51.751Z,23.87
2019-05-23T18:09:24.225Z,28.60
2019-05-23T18:11:57.107Z,26.20
2019-05-23T18:14:30.109Z,25.70
2019-05-23T18:17:02.378Z,28.52
2019-05-23T18:19:34.816Z,25.27
2019-05-23T18:22:08.766Z,23.38
2019-05-23T18:24:40.883Z,26.42
2019-05-23T18:27:13.990Z,24.00
2019-05-23T18:29:46.398Z,27.10
2019-05-23T18:32:20.327Z,28.00
2019-05-23T18:34:53.194Z,24.70
2019-05-23T18:37:25.873Z,31.65
2019-05-23T18:39:58.458Z,26.27
2019-05-23T18:42:30.654Z,36.10
2019-05-23T18:45:04.596Z,26.27
2019-05-23T18:47:41.216Z,28.45
2019-05-23T18:50:13.890Z,22.95
2019-05-23T18:52:46.157Z,21.33
2019-05-23T18:55:19.220Z,21.00
2019-05-23T18:57:52.859Z,24.27
2019-05-23T19:00:34.897Z,30.77
2019-05-23T19:03:07.869Z,26.90
2019-05-23T19:05:44.028Z,33.28
2019-05-23T19:08:25.863Z,26.90
2019-05-23T19:11:01.172Z,25.95
2019-05-23T19:13:33.933Z,29.98
2019-05-23T19:16:06.347Z,24.07
2019-05-23T19:18:39.476Z,30.32
2019-05-23T19:21:13.211Z,24.02
2019-05-23T19:23:45.386Z,21.27
2019-05-23T19:26:18.845Z,26.37
2019-05-23T19:28:52.551Z,31.00
2019-05-23T19:31:30.151Z,51.55
2019-05-23T19:34:11.024Z,40.40
2019-05-23T19:36:53.862Z,35.45
2019-05-23T19:39:28.787Z,31.85
2019-05-23T19:42:03.541Z,34.67
2019-05-23T19:44:40.470Z,33.15
2019-05-23T19:47:25.563Z,31.30
2019-05-23T19:50:00.622Z,35.48
2019-05-23T19:52:40.975Z,35.05
2019-05-23T19:55:16.638Z,38.75
2019-05-23T19:58:08.999Z,36.17
2019-05-23T20:00:44.846Z,33.28
2019-05-23T20:03:19.422Z,28.40
2019-05-23T20:05:58.762Z,29.30
2019-05-23T20:08:33.629Z,30.77
2019-05-23T20:11:09.101Z,24.02
2019-05-23T20:13:43.190Z,26.70
2019-05-23T20:16:20.373Z,26.25
2019-05-23T20:18:54.082Z,23.15
2019-05-23T20:21:28.227Z,17.87
2019-05-23T20:24:04.152Z,17.17
2019-05-23T20:26:38.108Z,41.30
2019-05-23T20:29:11.497Z,59.60
2019-05-23T20:31:48.465Z,81.15
2019-05-23T20:34:20.071Z,85.90
2019-05-23T20:36:52.496Z,80.22
2019-05-23T20:39:26.195Z,71.72
2019-05-23T20:42:10.864Z,51.90
2019-05-23T20:44:33.919Z,41.57
2019-05-23T20:47:07.134Z,41.10
2019-05-23T20:49:43.013Z,46.25
2019-05-23T20:52:16.495Z,44.65
2019-05-23T20:54:49.012Z,42.45
2019-05-23T20:57:21.721Z,25.35
2019-05-23T20:59:54.210Z,22.42
2019-05-23T21:02:27.218Z,25.35
2019-05-23T21:05:00.247Z,26.75
2019-05-23T21:07:33.159Z,23.45
2019-05-23T21:10:09.013Z,23.20
2019-05-23T21:12:41.218Z,26.33
2019-05-23T21:15:13.912Z,24.27
2019-05-23T21:17:46.767Z,22.55
2019-05-23T21:20:19.092Z,28.62
2019-05-23T21:22:51.912Z,19.32
2019-05-23T21:25:26.291Z,18.32
2019-05-23T21:27:58.967Z,23.35
2019-05-23T21:30:32.112Z,18.87
2019-05-23T21:33:04.979Z,17.23
2019-05-23T21:35:37.162Z,18.25
2019-05-23T21:38:09.738Z,19.87
2019-05-23T21:40:43.591Z,19.80
2019-05-23T21:43:15.824Z,14.43
2019-05-23T21:45:48.204Z,15.15
2019-05-23T21:48:20.832Z,16.95
2019-05-23T21:50:53.459Z,23.10
2019-05-23T21:53:25.628Z,29.18
2019-05-23T21:55:58.203Z,33.08
2019-05-23T21:58:30.273Z,33.18
2019-05-23T22:01:08.111Z,33.78
2019-05-23T22:03:57.667Z,36.60
2019-05-23T22:06:37.726Z,41.80
2019-05-23T22:09:11.740Z,40.23
2019-05-23T22:11:44.006Z,40.83
2019-05-23T22:14:16.502Z,38.85
2019-05-23T22:16:48.569Z,38.25
2019-05-23T22:19:21.863Z,35.28
2019-05-23T22:21:54.034Z,31.57
2019-05-23T22:24:26.307Z,25.95
2019-05-23T22:26:58.900Z,22.05
2019-05-23T22:29:30.857Z,23.90
2019-05-23T22:32:02.922Z,15.93
2019-05-23T22:34:39.395Z,19.30
2019-05-23T22:37:13.242Z,14.25
2019-05-23T22:42:19.796Z,16.87
2019-05-23T22:44:51.971Z,19.60
2019-05-23T22:47:25.371Z,24.57
2019-05-23T22:49:57.867Z,19.17
2019-05-23T22:52:30.128Z,19.17
2019-05-23T22:55:02.607Z,21.05
2019-05-23T22:57:35.187Z,17.02
2019-05-23T23:00:08.937Z,12.45
2019-05-23T23:02:41.271Z,12.90
2019-05-23T23:05:13.549Z,14.60
2019-05-23T23:07:45.822Z,12.03
2019-05-23T23:10:17.771Z,12.68
2019-05-23T23:12:49.753Z,12.25
2019-05-23T23:15:22.131Z,14.03
2019-05-23T23:17:54.396Z,14.38
2019-05-23T23:20:26.479Z,14.30
2019-05-23T23:22:58.330Z,11.80
2019-05-23T23:25:30.505Z,14.45
2019-05-23T23:28:02.847Z,18.12
2019-05-23T23:30:36.512Z,16.55
2019-05-23T23:33:08.815Z,10.50
2019-05-23T23:35:40.684Z,11.28
2019-05-23T23:38:12.805Z,11.28
2019-05-23T23:40:44.874Z,13.58
2019-05-23T23:43:17.102Z,13.62
2019-05-23T23:46:07.036Z,12.68
2019-05-23T23:48:57.353Z,11.73
2019-05-23T23:51:48.063Z,11.05
2019-05-23T23:54:38.048Z,10.93
2019-05-23T23:57:28.009Z,14.28
